24h
KLIENDITUGI:
Saartelennuliinid: +372 58856336 (24/7)
Estairi piletikassa lennujaamas:
+372 6058887; +372 55603687

16.04.2018 õhtune Transaviabaltika lend KTB676 kell 17:00 (kohalik aeg) Tallinn - Kärdla väljalend ja KTB677 kell 17:45 Kärdla – Tallinn väljalend on tühistatud. Lennu tühistamise põhjustab udu Kärdla lennujaamas. Kõikidele reisijatele tagastatakse piletiraha.

EEKA Kärdla lennuväli
FCEO32 EETN 161200 
TAF EEKA 161200Z 1613/1619 VRB02KT 4000 BR BKN004 BKN010 TEMPO 
    1613/1619 0500 FG VV001= 

METAR EEKA 161350Z 36004KT 0100 FG VV001 06/05 Q1014=

Kuupäev: 
16/04/2018